Time;durP1;ratioP1;P1;durP2;ratioP2;P2;SDS_P1;SDS_P2;PMS_P1;PMS_P2;Temp;Humidity;BMP_temperature;BMP_pressure;BME280_temperature;BME280_humidity;BME280_pressure;Samples;Min_cycle;Max_cycle;Signal;HPM_P1;HPM_P2
2022/05/24 00:00:16;;;;;;;26.25;13.50;;;;;;;;;;5049263;28;20027;-66
2022/05/24 00:02:41;;;;;;;29.48;13.52;;;;;;;;;;5054162;28;20025;-65
2022/05/24 00:05:07;;;;;;;28.48;14.35;;;;;;;;;;5040463;28;20075;-65
2022/05/24 00:07:32;;;;;;;30.17;13.93;;;;;;;;;;5046460;28;20021;-65
2022/05/24 00:09:58;;;;;;;24.00;13.80;;;;;;;;;;5046007;28;20021;-65
2022/05/24 00:12:23;;;;;;;26.10;13.60;;;;;;;;;;5039047;28;20025;-65
2022/05/24 00:17:32;;;;;;;23.25;12.35;;;;;;;;;;5044003;28;20310;-65
2022/05/24 00:19:57;;;;;;;25.08;13.00;;;;;;;;;;5049821;28;20044;-65
2022/05/24 00:22:22;;;;;;;38.35;13.65;;;;;;;;;;5047494;28;20143;-65
2022/05/24 00:24:47;;;;;;;27.63;13.00;;;;;;;;;;5038689;28;20060;-65
2022/05/24 00:27:12;;;;;;;23.07;12.67;;;;;;;;;;5036771;28;20290;-64
2022/05/24 00:29:38;;;;;;;27.52;13.32;;;;;;;;;;5038587;28;20247;-65
2022/05/24 00:32:03;;;;;;;25.25;13.23;;;;;;;;;;5042109;28;20016;-64
2022/05/24 00:34:28;;;;;;;23.80;12.82;;;;;;;;;;5041781;28;20454;-64
2022/05/24 00:36:53;;;;;;;28.53;14.30;;;;;;;;;;5052737;28;20029;-65
2022/05/24 00:39:19;;;;;;;27.52;12.73;;;;;;;;;;5051843;28;20271;-65
2022/05/24 00:41:55;;;;;;;29.93;13.17;;;;;;;;;;5049741;28;20028;-65
2022/05/24 00:44:20;;;;;;;26.02;13.48;;;;;;;;;;5046406;28;20334;-65
2022/05/24 00:46:52;;;;;;;31.70;11.60;;;;;;;;;;5046937;28;20100;-65
2022/05/24 00:49:32;;;;;;;23.85;13.27;;;;;;;;;;5045585;28;20446;-65
2022/05/24 00:52:12;;;;;;;30.70;13.48;;;;;;;;;;5041355;28;20096;-65
2022/05/24 00:54:38;;;;;;;29.15;12.30;;;;;;;;;;5044564;28;20025;-65
2022/05/24 00:57:17;;;;;;;31.15;14.40;;;;;;;;;;5047307;28;20017;-65
2022/05/24 00:59:51;;;;;;;26.23;12.80;;;;;;;;;;5050421;28;20477;-65
2022/05/24 01:02:16;;;;;;;27.25;14.70;;;;;;;;;;5052095;28;20373;-64
2022/05/24 01:04:42;;;;;;;27.95;14.18;;;;;;;;;;5048488;28;20021;-66
2022/05/24 01:07:07;;;;;;;25.83;13.65;;;;;;;;;;5046087;28;20014;-65
2022/05/24 01:09:52;;;;;;;23.70;11.98;;;;;;;;;;5050813;28;20478;-65
2022/05/24 01:12:23;;;;;;;23.63;13.13;;;;;;;;;;5040184;28;20030;-65
2022/05/24 01:14:49;;;;;;;26.58;14.07;;;;;;;;;;5047024;28;21011;-65
2022/05/24 01:17:14;;;;;;;27.10;12.50;;;;;;;;;;5045431;28;20370;-65
2022/05/24 01:19:45;;;;;;;24.23;14.27;;;;;;;;;;5053891;28;20036;-65
2022/05/24 01:22:16;;;;;;;23.52;12.38;;;;;;;;;;5039937;28;20328;-65
2022/05/24 01:24:48;;;;;;;24.40;12.27;;;;;;;;;;5035111;28;20037;-65
2022/05/24 01:27:13;;;;;;;25.48;12.98;;;;;;;;;;5040744;28;20178;-64
2022/05/24 01:29:38;;;;;;;26.63;12.23;;;;;;;;;;5043822;28;20096;-65
2022/05/24 01:37:32;;;;;;;15.02;9.73;;;;;;;;;;5049127;28;20043;-65
2022/05/24 01:39:59;;;;;;;23.25;11.25;;;;;;;;;;5052187;28;20029;-65
2022/05/24 01:42:24;;;;;;;21.80;9.80;;;;;;;;;;5045203;28;20025;-65
2022/05/24 01:44:52;;;;;;;19.30;10.18;;;;;;;;;;5049955;28;20444;-65
2022/05/24 01:47:18;;;;;;;16.85;8.77;;;;;;;;;;5050556;28;20437;-64
2022/05/24 01:49:45;;;;;;;15.73;9.05;;;;;;;;;;5046414;28;20051;-65
2022/05/24 01:52:14;;;;;;;17.58;7.90;;;;;;;;;;5044777;28;20028;-65
2022/05/24 01:54:41;;;;;;;17.73;8.38;;;;;;;;;;5048668;28;20103;-65
2022/05/24 01:57:12;;;;;;;14.23;8.70;;;;;;;;;;5045102;28;20033;-66
2022/05/24 01:59:37;;;;;;;;;;;;;;;;;;5050440;28;20028;-65
2022/05/24 02:02:02;;;;;;;11.63;7.00;;;;;;;;;;5044070;28;19908;-65
2022/05/24 02:04:30;;;;;;;11.00;7.13;;;;;;;;;;5049207;28;20087;-65
2022/05/24 02:06:58;;;;;;;17.23;8.77;;;;;;;;;;5037595;28;20032;-65
2022/05/24 02:09:23;;;;;;;13.38;7.07;;;;;;;;;;5040065;28;20024;-65
2022/05/24 02:11:48;;;;;;;12.90;7.37;;;;;;;;;;5042054;28;20021;-65
2022/05/24 02:14:16;;;;;;;16.48;8.35;;;;;;;;;;5047574;28;20300;-65
2022/05/24 02:16:45;;;;;;;11.07;7.45;;;;;;;;;;5042318;28;20025;-65
2022/05/24 02:19:11;;;;;;;16.80;9.38;;;;;;;;;;5048126;28;20025;-65
2022/05/24 02:21:38;;;;;;;11.85;8.30;;;;;;;;;;5048080;28;20079;-66
2022/05/24 02:24:13;;;;;;;14.55;7.38;;;;;;;;;;5046675;28;20021;-65
2022/05/24 02:26:38;;;;;;;15.20;6.68;;;;;;;;;;5037664;28;20025;-65
2022/05/24 02:29:06;;;;;;;13.00;7.60;;;;;;;;;;5036060;28;20032;-65
2022/05/24 02:31:32;;;;;;;13.00;8.93;;;;;;;;;;5047335;28;20359;-65
2022/05/24 02:33:58;;;;;;;13.63;7.90;;;;;;;;;;5045025;28;20373;-66
2022/05/24 02:36:23;;;;;;;13.63;7.67;;;;;;;;;;5050116;28;20092;-66
2022/05/24 02:38:48;;;;;;;27.73;8.32;;;;;;;;;;5044406;28;20268;-65
2022/05/24 02:41:28;;;;;;;21.87;8.03;;;;;;;;;;5050473;28;20021;-65
2022/05/24 02:43:53;;;;;;;;;;;;;;;;;;5043532;28;20665;-65
2022/05/24 02:46:19;;;;;;;15.32;7.82;;;;;;;;;;5048006;28;20261;-65
2022/05/24 02:48:44;;;;;;;14.45;8.35;;;;;;;;;;5044928;28;20029;-65
2022/05/24 02:51:11;;;;;;;13.32;7.72;;;;;;;;;;5047464;28;20036;-65
2022/05/24 02:53:36;;;;;;;14.23;7.10;;;;;;;;;;5052272;28;20448;-65
2022/05/24 02:56:03;;;;;;;14.38;6.72;;;;;;;;;;5053690;28;20005;-64
2022/05/24 02:58:28;;;;;;;13.60;7.47;;;;;;;;;;5051760;28;20509;-66
2022/05/24 03:00:53;;;;;;;16.45;7.40;;;;;;;;;;5050209;28;20374;-65
2022/05/24 03:03:18;;;;;;;15.07;7.23;;;;;;;;;;5049721;28;20033;-64
2022/05/24 03:05:43;;;;;;;20.93;7.20;;;;;;;;;;5050026;28;20267;-65
2022/05/24 03:10:52;;;;;;;11.00;6.20;;;;;;;;;;5050776;28;20282;-65
2022/05/24 03:16:08;;;;;;;14.02;6.25;;;;;;;;;;5053418;28;20820;-65
2022/05/24 03:18:34;;;;;;;15.93;7.72;;;;;;;;;;5049660;28;20504;-65
2022/05/24 03:20:59;;;;;;;15.25;5.95;;;;;;;;;;5043041;28;20021;-65
2022/05/24 03:23:24;;;;;;;9.40;5.53;;;;;;;;;;5054132;28;20044;-65
2022/05/24 03:25:49;;;;;;;14.53;5.17;;;;;;;;;;5044010;28;20366;-65
2022/05/24 03:28:17;;;;;;;14.30;5.50;;;;;;;;;;5054440;28;20306;-65
2022/05/24 03:30:43;;;;;;;10.52;4.72;;;;;;;;;;5052933;28;20279;-65
2022/05/24 03:33:08;;;;;;;13.00;4.95;;;;;;;;;;5051080;28;20013;-65
2022/05/24 03:35:34;;;;;;;11.10;4.30;;;;;;;;;;5035236;28;20024;-65
2022/05/24 03:37:59;;;;;;;13.95;4.22;;;;;;;;;;5052815;28;20025;-65
2022/05/24 03:40:24;;;;;;;13.25;4.07;;;;;;;;;;5046222;28;20056;-65
2022/05/24 03:42:54;;;;;;;16.17;4.35;;;;;;;;;;5054538;28;20021;-64
2022/05/24 03:45:20;;;;;;;21.23;4.50;;;;;;;;;;5042037;28;20454;-65
2022/05/24 03:47:45;;;;;;;10.73;4.35;;;;;;;;;;5047762;28;20060;-66
2022/05/24 03:50:11;;;;;;;18.30;4.47;;;;;;;;;;5048337;28;20013;-65
2022/05/24 03:52:36;;;;;;;16.70;4.03;;;;;;;;;;5051655;28;20640;-65
2022/05/24 03:55:02;;;;;;;14.90;4.63;;;;;;;;;;5043629;28;21976;-65
2022/05/24 04:00:13;;;;;;;9.55;3.83;;;;;;;;;;5041402;28;20054;-65
2022/05/24 04:02:38;;;;;;;17.05;4.15;;;;;;;;;;5049443;28;20017;-65
2022/05/24 04:05:04;;;;;;;12.70;4.32;;;;;;;;;;5052707;28;20028;-65
2022/05/24 04:07:29;;;;;;;15.80;4.38;;;;;;;;;;5040371;28;20025;-65
2022/05/24 04:09:54;;;;;;;9.43;4.03;;;;;;;;;;5037820;28;20454;-65
2022/05/24 04:12:19;;;;;;;21.63;4.03;;;;;;;;;;5048160;28;20282;-65
2022/05/24 04:14:46;;;;;;;9.87;2.57;;;;;;;;;;5044147;28;20326;-65
2022/05/24 04:17:11;;;;;;;9.25;2.83;;;;;;;;;;5045469;28;20770;-64
2022/05/24 04:19:36;;;;;;;16.00;3.15;;;;;;;;;;5038796;28;20040;-65
2022/05/24 04:22:02;;;;;;;13.47;2.80;;;;;;;;;;5043819;28;20032;-65
2022/05/24 04:24:27;;;;;;;10.32;3.45;;;;;;;;;;5064024;22;20449;-69
2022/05/24 04:26:52;;;;;;;12.05;3.00;;;;;;;;;;5033776;28;20076;-70
2022/05/24 04:29:18;;;;;;;9.60;3.08;;;;;;;;;;5022988;28;20478;-70
2022/05/24 04:31:43;;;;;;;11.10;3.08;;;;;;;;;;5022658;28;20466;-70
2022/05/24 04:34:09;;;;;;;6.53;3.10;;;;;;;;;;5026755;28;20381;-70
2022/05/24 04:36:34;;;;;;;9.75;3.22;;;;;;;;;;5030776;28;20354;-70
2022/05/24 04:38:59;;;;;;;11.97;3.63;;;;;;;;;;5029075;28;20049;-70
2022/05/24 04:44:09;;;;;;;15.75;3.47;;;;;;;;;;5026228;28;20687;-70
2022/05/24 04:49:19;;;;;;;11.60;3.53;;;;;;;;;;5031284;28;20064;-68
2022/05/24 04:51:44;;;;;;;8.25;3.40;;;;;;;;;;5030349;28;20021;-68
2022/05/24 04:54:09;;;;;;;12.57;4.57;;;;;;;;;;5029215;28;20029;-68
2022/05/24 04:56:34;;;;;;;11.97;3.27;;;;;;;;;;5027981;28;20029;-68
2022/05/24 04:59:00;;;;;;;7.40;3.00;;;;;;;;;;5028447;28;20377;-68
2022/05/24 05:01:25;;;;;;;14.02;3.25;;;;;;;;;;5027945;28;20276;-70
2022/05/24 05:03:50;;;;;;;20.37;4.00;;;;;;;;;;5026262;28;20025;-70
2022/05/24 05:06:15;;;;;;;13.63;4.00;;;;;;;;;;5028663;28;20272;-70
2022/05/24 05:08:41;;;;;;;10.02;4.00;;;;;;;;;;5029026;28;20390;-70
2022/05/24 05:11:06;;;;;;;17.90;4.20;;;;;;;;;;5029154;28;20018;-70
2022/05/24 05:13:31;;;;;;;11.73;4.50;;;;;;;;;;5029249;28;20275;-70
2022/05/24 05:15:56;;;;;;;21.67;5.50;;;;;;;;;;5028593;28;20261;-70
2022/05/24 05:18:24;;;;;;;12.43;4.53;;;;;;;;;;5026107;28;20287;-70
2022/05/24 05:20:49;;;;;;;19.40;4.95;;;;;;;;;;5022265;28;20333;-70
2022/05/24 05:23:16;;;;;;;15.27;3.97;;;;;;;;;;5023163;28;20029;-71
2022/05/24 05:25:42;;;;;;;13.75;4.43;;;;;;;;;;5025652;28;20029;-71
2022/05/24 05:28:07;;;;;;;15.02;4.18;;;;;;;;;;5026001;28;20030;-70
2022/05/24 05:33:17;;;;;;;17.88;4.47;;;;;;;;;;5025202;28;20033;-70
2022/05/24 05:35:43;;;;;;;14.05;4.75;;;;;;;;;;5027010;28;20393;-71
2022/05/24 05:38:09;;;;;;;17.73;4.18;;;;;;;;;;5024799;28;20052;-71
2022/05/24 05:40:34;;;;;;;10.45;4.32;;;;;;;;;;5027214;28;20029;-71
2022/05/24 05:42:59;;;;;;;21.07;4.13;;;;;;;;;;5028383;28;20040;-71
2022/05/24 05:45:24;;;;;;;15.23;4.63;;;;;;;;;;5027215;28;20264;-70
2022/05/24 05:47:52;;;;;;;13.33;4.60;;;;;;;;;;5026051;28;20334;-69
2022/05/24 05:50:18;;;;;;;13.25;4.47;;;;;;;;;;5024584;28;20272;-70
2022/05/24 05:52:43;;;;;;;18.30;4.82;;;;;;;;;;5026714;28;20044;-69
2022/05/24 05:55:08;;;;;;;11.50;4.60;;;;;;;;;;5023062;28;20052;-69
2022/05/24 05:57:33;;;;;;;13.52;4.90;;;;;;;;;;5024890;28;20014;-70
2022/05/24 05:59:58;;;;;;;18.53;4.27;;;;;;;;;;5027602;28;20045;-70
2022/05/24 06:02:24;;;;;;;12.02;4.20;;;;;;;;;;5027000;28;20261;-70
2022/05/24 06:04:49;;;;;;;17.75;4.80;;;;;;;;;;5029620;28;20014;-70
2022/05/24 06:07:14;;;;;;;16.53;5.13;;;;;;;;;;5028800;28;20021;-70
2022/05/24 06:09:40;;;;;;;23.25;5.10;;;;;;;;;;5024879;28;20636;-70
2022/05/24 06:12:05;;;;;;;16.63;4.25;;;;;;;;;;5028950;28;20072;-70
2022/05/24 06:14:30;;;;;;;14.10;4.13;;;;;;;;;;5024209;28;20064;-70
2022/05/24 06:16:55;;;;;;;14.17;3.87;;;;;;;;;;5025338;28;20079;-70
2022/05/24 06:19:21;;;;;;;18.52;5.95;;;;;;;;;;5032327;28;20295;-70
2022/05/24 06:21:46;;;;;;;18.38;4.50;;;;;;;;;;5032175;28;20033;-70
2022/05/24 06:24:11;;;;;;;20.80;4.67;;;;;;;;;;5029570;28;20036;-70
2022/05/24 06:26:36;;;;;;;16.17;3.97;;;;;;;;;;5031917;28;20279;-70
2022/05/24 06:29:02;;;;;;;12.43;3.33;;;;;;;;;;5029813;28;20376;-70
2022/05/24 06:31:27;;;;;;;9.93;3.38;;;;;;;;;;5031419;28;20287;-70
2022/05/24 06:33:53;;;;;;;11.70;2.20;;;;;;;;;;5028003;28;20022;-70
2022/05/24 06:36:18;;;;;;;10.20;2.13;;;;;;;;;;5033927;28;20040;-70
2022/05/24 06:38:43;;;;;;;10.18;2.70;;;;;;;;;;5031517;28;20083;-70
2022/05/24 06:41:09;;;;;;;10.27;2.78;;;;;;;;;;5024969;28;20022;-71
2022/05/24 06:43:34;;;;;;;13.85;5.57;;;;;;;;;;5031016;28;20362;-70
2022/05/24 06:46:00;;;;;;;18.25;8.07;;;;;;;;;;5032279;28;20037;-71
2022/05/24 06:48:25;;;;;;;11.18;5.90;;;;;;;;;;5030934;28;20047;-71
2022/05/24 06:50:50;;;;;;;16.83;6.40;;;;;;;;;;5033918;28;20039;-70
2022/05/24 06:53:15;;;;;;;20.57;9.00;;;;;;;;;;5033085;28;20087;-71
2022/05/24 06:55:41;;;;;;;16.60;7.70;;;;;;;;;;5032577;28;20367;-71
2022/05/24 06:58:06;;;;;;;16.38;4.78;;;;;;;;;;5033016;28;20264;-71
2022/05/24 07:03:15;;;;;;;4.53;1.52;;;;;;;;;;5032671;28;20260;-71
2022/05/24 07:05:41;;;;;;;4.63;1.55;;;;;;;;;;5030774;28;20429;-71
2022/05/24 07:08:07;;;;;;;6.82;1.95;;;;;;;;;;5031810;28;20389;-71
2022/05/24 07:10:34;;;;;;;5.93;1.38;;;;;;;;;;5031738;28;20100;-71
2022/05/24 07:13:03;;;;;;;5.57;1.83;;;;;;;;;;5032497;28;20621;-71
2022/05/24 07:15:29;;;;;;;5.45;1.40;;;;;;;;;;5029816;28;20018;-71
2022/05/24 07:17:54;;;;;;;11.00;1.98;;;;;;;;;;5029791;28;20033;-70
2022/05/24 07:20:19;;;;;;;8.95;1.70;;;;;;;;;;5031270;28;20021;-71
2022/05/24 07:22:45;;;;;;;9.80;1.42;;;;;;;;;;5029609;28;20021;-71
2022/05/24 07:25:10;;;;;;;7.45;1.60;;;;;;;;;;5031190;28;20025;-71
2022/05/24 07:27:36;;;;;;;8.50;1.90;;;;;;;;;;5033168;28;20025;-70
2022/05/24 07:30:01;;;;;;;11.68;2.05;;;;;;;;;;5031838;28;20022;-70
2022/05/24 07:32:27;;;;;;;8.27;1.55;;;;;;;;;;5032916;28;20492;-70
2022/05/24 07:34:52;;;;;;;8.93;1.95;;;;;;;;;;5032974;28;20445;-70
2022/05/24 07:37:17;;;;;;;5.47;1.53;;;;;;;;;;5031900;28;20374;-71
2022/05/24 07:39:43;;;;;;;10.48;1.25;;;;;;;;;;5032589;28;20268;-71
2022/05/24 07:47:20;;;;;;;4.30;1.45;;;;;;;;;;5032774;28;20029;-70
2022/05/24 07:49:46;;;;;;;4.90;1.40;;;;;;;;;;5032250;28;20017;-70
2022/05/24 07:52:11;;;;;;;4.80;1.47;;;;;;;;;;5031869;28;20099;-70
2022/05/24 07:54:36;;;;;;;8.38;1.25;;;;;;;;;;5032084;28;20260;-70
2022/05/24 07:57:02;;;;;;;6.97;1.92;;;;;;;;;;5032645;28;20014;-69
2022/05/24 07:59:27;;;;;;;7.53;1.60;;;;;;;;;;5032381;28;20075;-68
2022/05/24 08:01:53;;;;;;;5.33;1.30;;;;;;;;;;5032292;28;20444;-68
2022/05/24 08:04:19;;;;;;;10.48;1.70;;;;;;;;;;5032768;28;20788;-70
2022/05/24 08:06:44;;;;;;;9.85;2.40;;;;;;;;;;5031877;28;20481;-70
2022/05/24 08:09:09;;;;;;;3.50;1.50;;;;;;;;;;5031237;28;20100;-70
2022/05/24 08:11:34;;;;;;;6.80;1.48;;;;;;;;;;5031934;28;20264;-70
2022/05/24 08:14:02;;;;;;;8.77;1.50;;;;;;;;;;5032187;28;20021;-70
2022/05/24 08:16:28;;;;;;;6.72;1.58;;;;;;;;;;5032271;28;20255;-70
2022/05/24 08:18:53;;;;;;;6.57;1.52;;;;;;;;;;5032339;28;20382;-70
2022/05/24 08:21:19;;;;;;;10.23;1.48;;;;;;;;;;5031889;28;20032;-70
2022/05/24 08:23:44;;;;;;;10.82;2.40;;;;;;;;;;5032156;28;20440;-70
2022/05/24 08:26:09;;;;;;;5.23;1.40;;;;;;;;;;5045985;28;20106;-70
2022/05/24 08:28:34;;;;;;;6.07;1.63;;;;;;;;;;5031538;28;20288;-70
2022/05/24 08:30:59;;;;;;;8.10;1.85;;;;;;;;;;5032386;28;20284;-70
2022/05/24 08:33:25;;;;;;;7.38;1.80;;;;;;;;;;5032251;28;20049;-70
2022/05/24 08:35:51;;;;;;;5.85;1.40;;;;;;;;;;5032016;28;20060;-70
2022/05/24 08:38:17;;;;;;;5.45;1.30;;;;;;;;;;5031950;28;20033;-70
2022/05/24 08:40:43;;;;;;;10.65;2.20;;;;;;;;;;5031187;28;20041;-70
2022/05/24 08:43:11;;;;;;;9.55;1.13;;;;;;;;;;5030988;28;20442;-70
2022/05/24 08:48:31;;;;;;;6.00;1.73;;;;;;;;;;5031722;28;20087;-70
2022/05/24 08:51:28;;;;;;;4.13;1.25;;;;;;;;;;5031302;28;20021;-70
2022/05/24 08:53:56;;;;;;;3.80;1.20;;;;;;;;;;5008185;28;20508;-70
2022/05/24 08:56:26;;;;;;;8.30;2.35;;;;;;;;;;5030499;28;20079;-70
2022/05/24 08:58:56;;;;;;;4.78;1.40;;;;;;;;;;5031087;28;20030;-70
2022/05/24 09:01:27;;;;;;;4.28;1.02;;;;;;;;;;5028534;28;20032;-70
2022/05/24 09:03:53;;;;;;;5.68;1.60;;;;;;;;;;5030697;28;20024;-70
2022/05/24 09:06:34;;;;;;;4.60;1.27;;;;;;;;;;5031234;28;20018;-70
2022/05/24 09:09:22;;;;;;;7.22;1.65;;;;;;;;;;5031118;28;20103;-70
2022/05/24 09:11:52;;;;;;;3.85;1.23;;;;;;;;;;5030871;28;20017;-70
2022/05/24 09:14:25;;;;;;;5.68;1.00;;;;;;;;;;5029849;28;20362;-70
2022/05/24 09:16:56;;;;;;;8.18;1.70;;;;;;;;;;5029654;28;20632;-70
2022/05/24 09:19:26;;;;;;;4.70;1.15;;;;;;;;;;5021012;28;20025;-70
2022/05/24 09:21:53;;;;;;;3.47;1.60;;;;;;;;;;5031225;28;20021;-70
2022/05/24 09:24:22;;;;;;;5.55;1.00;;;;;;;;;;5030865;28;20021;-70
2022/05/24 09:27:04;;;;;;;3.72;1.52;;;;;;;;;;5031755;28;20037;-70
2022/05/24 09:29:31;;;;;;;6.63;1.08;;;;;;;;;;5029741;28;20052;-70
2022/05/24 09:31:57;;;;;;;6.22;1.73;;;;;;;;;;5030890;28;20026;-70
2022/05/24 09:34:30;;;;;;;8.38;1.13;;;;;;;;;;5026767;28;20014;-71
2022/05/24 09:36:57;;;;;;;10.52;1.10;;;;;;;;;;5029633;28;20021;-70
2022/05/24 09:39:37;;;;;;;6.28;1.08;;;;;;;;;;5029780;28;20014;-70
2022/05/24 09:42:05;;;;;;;6.18;1.33;;;;;;;;;;5030268;28;20021;-70
2022/05/24 09:44:42;;;;;;;7.22;1.05;;;;;;;;;;5028864;28;20064;-70
2022/05/24 09:47:20;;;;;;;2.25;0.90;;;;;;;;;;5029966;28;20022;-70
2022/05/24 09:49:45;;;;;;;9.02;1.23;;;;;;;;;;5030378;28;20033;-70
2022/05/24 09:52:12;;;;;;;2.90;1.10;;;;;;;;;;5019939;28;20040;-70
2022/05/24 09:54:49;;;;;;;3.17;1.10;;;;;;;;;;5030411;28;20252;-70
2022/05/24 09:57:20;;;;;;;1.88;0.73;;;;;;;;;;5030072;28;20010;-70
2022/05/24 09:59:56;;;;;;;4.93;1.50;;;;;;;;;;5030311;28;20033;-70
2022/05/24 10:02:24;;;;;;;1.92;0.88;;;;;;;;;;5029909;28;20025;-70
2022/05/24 10:04:49;;;;;;;4.43;1.02;;;;;;;;;;5030000;28;20056;-70
2022/05/24 10:07:28;;;;;;;4.88;1.40;;;;;;;;;;5029341;28;20624;-70
2022/05/24 10:10:00;;;;;;;5.05;0.82;;;;;;;;;;5028641;28;20060;-70
2022/05/24 10:12:44;;;;;;;7.32;0.80;;;;;;;;;;5026081;28;20102;-70
2022/05/24 10:15:09;;;;;;;5.30;1.25;;;;;;;;;;5020363;28;20038;-70
2022/05/24 10:17:53;;;;;;;4.33;1.13;;;;;;;;;;5029644;28;20488;-70
2022/05/24 10:20:27;;;;;;;11.20;1.45;;;;;;;;;;5030017;28;20256;-70
2022/05/24 10:22:55;;;;;;;4.85;0.80;;;;;;;;;;5028112;28;20013;-70
2022/05/24 10:25:35;;;;;;;6.55;1.25;;;;;;;;;;5023814;28;20058;-69
2022/05/24 10:28:00;;;;;;;3.22;0.85;;;;;;;;;;5021195;28;20033;-69
2022/05/24 10:30:31;;;;;;;5.75;1.05;;;;;;;;;;5029657;28;20390;-69
2022/05/24 10:38:41;;;;;;;4.22;1.00;;;;;;;;;;5027207;28;20410;-69
2022/05/24 10:41:12;;;;;;;8.57;1.92;;;;;;;;;;5029793;28;20010;-69
2022/05/24 10:43:54;;;;;;;5.07;0.93;;;;;;;;;;5028972;28;20037;-69
2022/05/24 10:46:23;;;;;;;7.40;0.95;;;;;;;;;;5028181;28;20018;-69
2022/05/24 10:49:07;;;;;;;3.20;1.02;;;;;;;;;;5029450;28;20530;-69
2022/05/24 10:51:40;;;;;;;3.25;1.33;;;;;;;;;;5025769;28;20030;-69
2022/05/24 10:54:05;;;;;;;8.88;0.80;;;;;;;;;;5025225;28;20010;-69
2022/05/24 10:56:33;;;;;;;3.20;0.68;;;;;;;;;;5028846;28;21457;-69
2022/05/24 10:59:03;;;;;;;7.15;0.80;;;;;;;;;;5024739;28;20033;-69
2022/05/24 11:01:32;;;;;;;5.05;1.08;;;;;;;;;;5028582;28;20025;-69
2022/05/24 11:04:01;;;;;;;7.03;1.77;;;;;;;;;;5026214;28;20517;-69
2022/05/24 11:06:38;;;;;;;3.80;0.93;;;;;;;;;;5028630;28;20037;-69
2022/05/24 11:09:18;;;;;;;12.63;1.38;;;;;;;;;;5032233;28;20078;-69
2022/05/24 11:11:46;;;;;;;6.78;1.20;;;;;;;;;;5032197;28;20017;-69
2022/05/24 11:14:30;;;;;;;4.22;0.80;;;;;;;;;;5030761;28;20071;-69
2022/05/24 11:16:56;;;;;;;6.72;0.80;;;;;;;;;;5027925;28;20541;-68
2022/05/24 11:19:23;;;;;;;4.00;1.00;;;;;;;;;;5032087;28;20021;-69
2022/05/24 11:22:09;;;;;;;7.82;2.35;;;;;;;;;;5030942;28;20053;-69
2022/05/24 11:24:35;;;;;;;4.05;0.90;;;;;;;;;;5029692;28;20021;-69
2022/05/24 11:27:01;;;;;;;5.97;1.17;;;;;;;;;;5031239;28;20478;-69
2022/05/24 11:29:28;;;;;;;4.47;0.73;;;;;;;;;;5031946;28;20018;-69
2022/05/24 11:31:59;;;;;;;4.05;0.80;;;;;;;;;;5030609;28;20022;-69
2022/05/24 11:34:26;;;;;;;2.67;0.50;;;;;;;;;;5027263;28;20014;-69
2022/05/24 11:37:13;;;;;;;3.65;0.90;;;;;;;;;;5027148;28;20026;-69
2022/05/24 11:39:40;;;;;;;2.65;0.77;;;;;;;;;;5029303;28;20109;-69
2022/05/24 11:42:24;;;;;;;8.55;1.02;;;;;;;;;;5031614;28;20072;-68
2022/05/24 11:44:50;;;;;;;1.02;0.50;;;;;;;;;;5031630;28;20056;-69
2022/05/24 11:47:50;;;;;;;2.67;0.77;;;;;;;;;;5031952;28;20428;-69
2022/05/24 11:50:30;;;;;;;6.00;1.85;;;;;;;;;;4943641;29;20496;-69
2022/05/24 11:53:01;;;;;;;2.03;1.20;;;;;;;;;;5020484;28;20033;-69
2022/05/24 11:55:47;;;;;;;3.20;1.27;;;;;;;;;;5031914;28;20021;-69
2022/05/24 11:58:22;;;;;;;5.32;1.15;;;;;;;;;;5024380;28;20076;-69
2022/05/24 12:00:58;;;;;;;1.10;0.60;;;;;;;;;;5030683;28;20033;-69
2022/05/24 12:09:11;;;;;;;1.55;0.73;;;;;;;;;;5031041;28;20040;-69
2022/05/24 12:11:37;;;;;;;3.13;0.90;;;;;;;;;;5015629;28;20021;-69
2022/05/24 12:14:14;;;;;;;4.90;0.85;;;;;;;;;;5032031;28;20493;-69
2022/05/24 12:16:42;;;;;;;7.63;1.50;;;;;;;;;;5028029;28;20014;-69
2022/05/24 12:19:09;;;;;;;2.85;0.50;;;;;;;;;;5031087;28;20363;-69
2022/05/24 12:21:38;;;;;;;3.67;0.70;;;;;;;;;;5026962;28;20029;-69
2022/05/24 12:24:21;;;;;;;1.45;0.55;;;;;;;;;;5029389;28;20025;-69
2022/05/24 12:27:05;;;;;;;3.90;0.77;;;;;;;;;;5030258;28;20025;-69
2022/05/24 12:29:31;;;;;;;14.05;0.93;;;;;;;;;;5029172;28;20025;-69
2022/05/24 12:32:02;;;;;;;4.47;0.75;;;;;;;;;;5028730;28;20097;-69
2022/05/24 12:34:29;;;;;;;2.20;0.60;;;;;;;;;;5030279;28;20028;-69
2022/05/24 12:36:55;;;;;;;3.15;0.52;;;;;;;;;;5027242;28;20025;-69
2022/05/24 12:39:21;;;;;;;2.20;0.90;;;;;;;;;;5028989;28;20029;-69
2022/05/24 12:41:49;;;;;;;5.82;0.90;;;;;;;;;;5029811;28;20473;-69
2022/05/24 12:44:18;;;;;;;11.63;1.55;;;;;;;;;;5030663;28;20705;-69
2022/05/24 12:46:49;;;;;;;4.32;0.70;;;;;;;;;;5030202;28;20029;-69
2022/05/24 12:49:16;;;;;;;3.75;0.50;;;;;;;;;;5030846;28;20032;-69
2022/05/24 12:51:41;;;;;;;2.70;0.40;;;;;;;;;;5030807;28;20086;-69
2022/05/24 12:54:11;;;;;;;0.32;0.30;;;;;;;;;;5030194;28;20096;-69
2022/05/24 12:56:37;;;;;;;4.18;0.77;;;;;;;;;;5030246;28;20063;-69
2022/05/24 12:59:10;;;;;;;0.98;0.50;;;;;;;;;;5028457;28;20496;-69
2022/05/24 13:01:41;;;;;;;2.97;0.43;;;;;;;;;;5026733;28;20029;-69
2022/05/24 13:04:16;;;;;;;1.63;0.70;;;;;;;;;;5026724;28;20226;-69
2022/05/24 13:06:42;;;;;;;2.30;0.75;;;;;;;;;;5030015;28;20080;-69
2022/05/24 13:09:10;;;;;;;2.90;0.50;;;;;;;;;;5029394;28;20424;-69
2022/05/24 13:11:36;;;;;;;6.05;0.60;;;;;;;;;;5029467;28;20056;-69
2022/05/24 13:14:02;;;;;;;5.93;0.70;;;;;;;;;;5025852;28;20052;-69
2022/05/24 13:16:27;;;;;;;2.00;0.55;;;;;;;;;;5028963;28;20025;-69
2022/05/24 13:18:53;;;;;;;2.85;0.70;;;;;;;;;;5029234;28;20025;-69
2022/05/24 13:21:22;;;;;;;1.67;0.60;;;;;;;;;;5030059;28;20018;-69
2022/05/24 13:23:47;;;;;;;1.88;0.75;;;;;;;;;;5028549;28;20030;-69
2022/05/24 13:26:14;;;;;;;6.32;1.38;;;;;;;;;;5028230;28;20021;-70
2022/05/24 13:28:51;;;;;;;4.85;0.75;;;;;;;;;;5024755;28;20025;-70
2022/05/24 13:34:26;;;;;;;3.15;0.95;;;;;;;;;;5023510;28;20096;-69
2022/05/24 13:36:55;;;;;;;3.08;1.02;;;;;;;;;;5027953;28;20022;-70
2022/05/24 13:39:23;;;;;;;2.13;0.90;;;;;;;;;;5022861;28;20033;-69
2022/05/24 13:41:56;;;;;;;2.67;1.77;;;;;;;;;;5026921;28;20757;-70
2022/05/24 13:44:21;;;;;;;4.65;1.10;;;;;;;;;;5026107;28;20040;-69
2022/05/24 13:46:51;;;;;;;1.95;0.63;;;;;;;;;;5029444;28;20056;-69
2022/05/24 13:49:35;;;;;;;4.47;0.90;;;;;;;;;;5027790;28;20021;-70
2022/05/24 13:52:12;;;;;;;2.45;1.00;;;;;;;;;;5029375;28;20032;-69
2022/05/24 13:54:37;;;;;;;1.63;0.63;;;;;;;;;;5029124;28;20180;-70
2022/05/24 13:57:03;;;;;;;4.20;0.80;;;;;;;;;;5028776;28;20022;-70
2022/05/24 13:59:29;;;;;;;3.78;0.80;;;;;;;;;;5025762;28;20028;-70
2022/05/24 14:02:06;;;;;;;3.70;0.82;;;;;;;;;;5025494;28;20056;-70
2022/05/24 14:04:36;;;;;;;2.67;0.88;;;;;;;;;;5024335;28;20032;-70
2022/05/24 14:07:01;;;;;;;3.75;1.08;;;;;;;;;;5028308;28;20053;-70
2022/05/24 14:09:28;;;;;;;2.67;1.00;;;;;;;;;;5029660;28;20065;-70
2022/05/24 14:11:57;;;;;;;1.50;0.82;;;;;;;;;;5029717;28;20290;-70
2022/05/24 14:14:23;;;;;;;1.98;1.02;;;;;;;;;;5023579;28;20079;-69
2022/05/24 14:16:49;;;;;;;7.30;1.35;;;;;;;;;;5029824;28;20614;-69
2022/05/24 14:19:14;;;;;;;3.38;1.15;;;;;;;;;;5028679;28;20024;-70
2022/05/24 14:21:40;;;;;;;5.55;1.08;;;;;;;;;;5032260;28;20021;-69
2022/05/24 14:24:09;;;;;;;4.25;1.27;;;;;;;;;;5037290;28;20553;-69
2022/05/24 14:26:34;;;;;;;6.07;1.63;;;;;;;;;;5026848;28;20398;-69
2022/05/24 14:28:59;;;;;;;3.53;1.10;;;;;;;;;;5027420;28;20051;-69
2022/05/24 14:31:24;;;;;;;2.57;1.03;;;;;;;;;;5029622;28;20017;-68
2022/05/24 14:33:50;;;;;;;2.97;0.70;;;;;;;;;;5030168;28;20107;-69
2022/05/24 14:36:15;;;;;;;1.63;0.73;;;;;;;;;;5029868;28;20476;-70
2022/05/24 14:38:40;;;;;;;5.50;0.90;;;;;;;;;;5030689;28;20264;-68
2022/05/24 14:41:22;;;;;;;1.80;0.60;;;;;;;;;;5033052;28;20358;-69
2022/05/24 14:43:49;;;;;;;3.88;1.20;;;;;;;;;;5027741;28;20113;-70
2022/05/24 14:46:16;;;;;;;5.68;1.90;;;;;;;;;;5031444;28;20033;-69
2022/05/24 14:48:42;;;;;;;2.53;0.93;;;;;;;;;;5033236;28;20032;-69
2022/05/24 14:51:08;;;;;;;2.25;0.70;;;;;;;;;;5033369;28;20021;-69
2022/05/24 14:53:35;;;;;;;6.18;1.33;;;;;;;;;;5031956;28;20017;-69
2022/05/24 14:56:00;;;;;;;4.30;0.88;;;;;;;;;;5032683;28;20485;-69
2022/05/24 14:58:26;;;;;;;4.63;1.47;;;;;;;;;;5028526;28;20036;-68
2022/05/24 15:00:51;;;;;;;3.97;0.70;;;;;;;;;;5033332;28;20288;-71
2022/05/24 15:03:16;;;;;;;4.70;0.87;;;;;;;;;;5031967;28;20281;-68
2022/05/24 15:05:41;;;;;;;2.77;1.10;;;;;;;;;;5032327;28;20382;-71
2022/05/24 15:16:23;;;;;;;8.68;1.50;;;;;;;;;;5030653;28;20083;-69
2022/05/24 15:18:48;;;;;;;9.20;1.30;;;;;;;;;;5032983;28;20029;-69
2022/05/24 15:21:15;;;;;;;15.32;1.27;;;;;;;;;;5027095;28;20018;-70
2022/05/24 15:23:41;;;;;;;25.42;1.95;;;;;;;;;;5029786;28;20029;-70
2022/05/24 15:26:13;;;;;;;15.52;1.90;;;;;;;;;;5029467;28;20068;-70
2022/05/24 15:28:40;;;;;;;29.67;1.75;;;;;;;;;;5032283;28;20038;-71
2022/05/24 15:31:05;;;;;;;19.08;1.73;;;;;;;;;;5028327;28;20448;-70
2022/05/24 15:33:30;;;;;;;22.17;1.45;;;;;;;;;;5031998;28;20025;-70
2022/05/24 15:35:56;;;;;;;18.90;1.63;;;;;;;;;;5029895;28;20461;-71
2022/05/24 15:38:21;;;;;;;15.25;1.33;;;;;;;;;;5027182;28;20017;-71